Time;durP1;ratioP1;P1;durP2;ratioP2;P2;SDS_P1;SDS_P2;PMS_P1;PMS_P2;Temp;Humidity;BMP_temperature;BMP_pressure;BME280_temperature;BME280_humidity;BME280_pressure;Samples;Min_cycle;Max_cycle;Signal;HPM_P1;HPM_P2
2022/01/24 09:11:48;;;;;;;;;47.50;36.25;;;;;16.33;38.20;102701.03;5128762;27;45466;-75
2022/01/24 09:14:13;;;;;;;;;43.00;33.50;;;;;18.03;35.93;102734.78;5112627;27;45940;-75
2022/01/24 09:16:39;;;;;;;;;34.25;29.50;;;;;18.94;35.71;102709.25;5118218;27;45374;-73
2022/01/24 09:19:06;;;;;;;;;34.00;31.50;;;;;20.12;32.53;102737.16;5119314;27;45706;-74
2022/01/24 09:21:35;;;;;;;;;34.50;30.50;;;;;21.09;31.87;102734.66;5132674;27;46214;-76
2022/01/24 09:24:02;;;;;;;;;39.75;32.75;;;;;21.58;29.96;102726.13;5135832;27;45620;-75
2022/01/24 09:26:28;;;;;;;;;34.25;30.00;;;;;22.15;29.37;102724.50;5132836;27;45388;-74
2022/01/24 09:28:56;;;;;;;;;30.50;26.25;;;;;22.68;27.19;102727.22;5119110;27;45335;-75
2022/01/24 09:31:26;;;;;;;;;41.75;32.00;;;;;22.95;26.75;102701.84;5107926;27;46093;-74
2022/01/24 09:33:54;;;;;;;;;46.67;33.00;;;;;23.26;26.36;102720.88;5104652;27;45427;-74
2022/01/24 09:36:20;;;;;;;;;39.67;33.33;;;;;23.41;26.39;102708.97;5111081;27;45413;-75
2022/01/24 09:38:46;;;;;;;;;30.33;28.67;;;;;23.50;24.98;102656.16;5101341;27;45547;-75
2022/01/24 09:41:13;;;;;;;;;40.67;31.67;;;;;23.82;24.99;102720.63;5110808;27;46302;-76
2022/01/24 09:43:40;;;;;;;;;45.00;35.00;;;;;23.86;23.46;102693.75;5112073;27;45639;-74
2022/01/24 09:46:08;;;;;;;;;37.33;32.67;;;;;24.12;23.87;102698.50;5110846;27;45421;-75
2022/01/24 09:48:34;;;;;;;;;37.00;31.33;;;;;24.57;22.98;102673.34;5130101;27;45735;-75
2022/01/24 09:51:00;;;;;;;;;37.00;29.67;;;;;25.14;23.38;102717.38;5130743;27;45804;-75
2022/01/24 09:53:26;;;;;;;;;31.33;27.67;;;;;25.45;23.38;102676.28;5129469;27;45557;-76
2022/01/24 09:55:52;;;;;;;;;36.33;30.00;;;;;26.16;22.95;102632.03;5128776;27;45642;-73
2022/01/24 09:58:19;;;;;;;;;30.33;28.33;;;;;27.34;21.54;102697.78;5109901;27;45539;-76
2022/01/24 10:00:46;;;;;;;;;33.33;28.00;;;;;28.26;21.26;102725.59;5117617;27;45981;-75
2022/01/24 10:03:12;;;;;;;;;36.67;29.67;;;;;28.37;20.74;102725.16;5127006;27;45516;-74
2022/01/24 10:05:40;;;;;;;;;34.00;30.00;;;;;28.65;19.72;102722.22;5132242;27;45456;-76
2022/01/24 10:08:12;;;;;;;;;34.00;30.33;;;;;28.69;19.68;102727.41;5135812;27;45426;-77
2022/01/24 10:10:48;;;;;;;;;31.00;28.67;;;;;29.42;19.28;102719.69;5133428;27;45647;-75
2022/01/24 10:19:14;;;;;;;;;42.00;32.33;;;;;28.97;17.66;102672.22;5109201;27;45274;-76
2022/01/24 10:21:48;;;;;;;;;38.00;31.67;;;;;29.13;18.71;102707.53;5105787;27;45529;-75
2022/01/24 10:24:34;;;;;;;;;41.33;32.00;;;;;28.48;18.70;102666.34;5085470;27;45834;-75
2022/01/24 10:27:16;;;;;;;;;35.67;30.33;;;;;28.85;17.78;102706.03;5077736;27;45476;-77
2022/01/24 10:30:10;;;;;;;;;31.33;28.33;;;;;29.55;18.72;102698.41;5087295;27;45596;-74
2022/01/24 10:32:40;;;;;;;;;31.33;24.67;;;;;30.31;18.15;102692.97;5091096;27;46195;-75
2022/01/24 10:35:31;;;;;;;;;35.67;30.00;;;;;30.68;17.45;102701.88;5093694;27;45661;-75
2022/01/24 10:38:19;;;;;;;;;36.33;33.00;;;;;31.46;17.14;102693.22;5098214;27;45469;-77
2022/01/24 10:40:52;;;;;;;;;36.67;31.67;;;;;31.05;17.19;102690.88;5084821;27;45869;-77
2022/01/24 10:43:27;;;;;;;;;38.67;33.00;;;;;30.98;16.62;102696.72;5080373;27;46704;-78
2022/01/24 10:45:55;;;;;;;;;33.33;30.33;;;;;30.59;16.95;102703.25;5098873;27;45430;-76
2022/01/24 10:48:33;;;;;;;;;33.33;30.67;;;;;30.89;16.57;102700.78;5096915;27;45717;-78
2022/01/24 10:51:06;;;;;;;;;33.00;27.67;;;;;30.63;16.73;102697.59;5088206;27;45620;-73
2022/01/24 10:53:41;;;;;;;;;33.67;32.33;;;;;30.23;16.59;102685.19;5115371;27;47590;-76
2022/01/24 10:56:25;;;;;;;;;30.67;29.33;;;;;29.73;17.39;102681.38;5095843;27;45567;-75
2022/01/24 10:58:51;;;;;;;;;34.00;32.33;;;;;28.49;17.39;102677.03;5097546;27;45597;-75
2022/01/24 11:01:22;;;;;;;;;35.33;31.33;;;;;28.48;17.99;102683.38;5090517;27;45462;-75
2022/01/24 11:04:03;;;;;;;;;30.67;30.00;;;;;29.46;17.61;102659.22;5097787;27;48081;-75
2022/01/24 11:06:34;;;;;;;;;31.33;29.00;;;;;29.72;17.43;102649.88;5096668;27;45459;-76
2022/01/24 11:09:36;;;;;;;;;28.67;26.00;;;;;30.45;17.00;102644.47;5095429;27;45547;-77
2022/01/24 11:12:11;;;;;;;;;31.33;28.33;;;;;30.40;16.53;102635.72;5085320;27;45592;-75
2022/01/24 11:14:39;;;;;;;;;31.67;26.67;;;;;30.49;17.12;102642.47;5100467;27;46353;-76
2022/01/24 11:17:07;;;;;;;;;30.67;30.00;;;;;30.91;16.89;102676.34;5098428;27;45492;-76
2022/01/24 11:19:43;;;;;;;;;28.67;25.67;;;;;31.25;16.73;102668.16;5096174;27;45562;-74
2022/01/24 11:22:19;;;;;;;;;11.67;7.67;;;;;31.40;16.37;102661.03;5096509;27;45634;-74
2022/01/24 11:24:56;;;;;;;;;31.33;27.33;;;;;30.79;16.89;102653.50;5109999;27;46330;-77
2022/01/24 11:27:22;;;;;;;;;31.00;27.00;;;;;30.52;16.81;102626.09;5119926;27;45459;-73
2022/01/24 11:29:54;;;;;;;;;34.33;30.67;;;;;31.03;16.05;102663.03;5115189;27;45499;-75
2022/01/24 11:32:58;;;;;;;;;30.00;28.00;;;;;30.69;16.21;102636.88;5100057;27;45549;-76
2022/01/24 11:35:50;;;;;;;;;35.00;31.67;;;;;29.73;17.03;102659.75;5114713;27;47505;-75
2022/01/24 11:38:32;;;;;;;;;41.33;33.67;;;;;28.57;17.31;102668.63;5089600;27;45533;-76
2022/01/24 11:41:32;;;;;;;;;36.00;31.00;;;;;28.68;17.17;102643.88;5117403;27;45628;-77
2022/01/24 11:44:07;;;;;;;;;34.67;29.00;;;;;28.21;17.78;102657.56;5114438;27;45566;-77
2022/01/24 11:46:34;;;;;;;;;32.67;29.00;;;;;27.80;18.25;102655.59;5116247;27;46051;-73
2022/01/24 11:49:09;;;;;;;;;33.67;28.33;;;;;27.74;18.15;102661.25;5115992;27;45573;-78
2022/01/24 11:51:37;;;;;;;;;37.00;33.33;;;;;26.65;18.59;102608.88;5106575;27;45505;-77
2022/01/24 11:54:04;;;;;;;;;36.67;33.67;;;;;25.81;19.42;102626.84;5095331;27;45475;-73
2022/01/24 11:56:36;;;;;;;;;35.33;31.33;;;;;25.65;20.03;102622.91;5104230;27;45666;-76
2022/01/24 11:59:22;;;;;;;;;32.33;28.33;;;;;25.50;20.17;102640.34;5103945;27;45353;-76
2022/01/24 12:02:08;;;;;;;;;37.00;31.00;;;;;25.03;20.35;102609.53;5101114;27;45498;-75
2022/01/24 12:04:59;;;;;;;;;45.33;34.67;;;;;25.15;20.56;102644.03;5102432;27;45398;-76
2022/01/24 12:07:32;;;;;;;;;43.67;34.00;;;;;24.98;21.20;102634.66;5102219;27;46207;-77
2022/01/24 12:10:23;;;;;;;;;36.67;33.00;;;;;24.82;21.40;102637.81;5114363;27;45639;-76
2022/01/24 12:16:20;;;;;;;;;29.67;28.33;;;;;24.75;21.88;102647.88;5093200;27;45729;-75
2022/01/24 12:19:03;;;;;;;;;41.00;33.67;;;;;24.29;22.34;102619.56;5102926;27;47606;-74
2022/01/24 12:21:30;;;;;;;;;34.33;31.00;;;;;23.68;23.17;102641.53;5074745;27;45651;-78
2022/01/24 12:24:01;;;;;;;;;38.67;31.67;;;;;22.68;23.92;102633.75;5090746;27;45627;-78
2022/01/24 12:26:30;;;;;;;;;34.25;31.50;;;;;21.29;24.54;102549.69;5103631;27;45483;-74
2022/01/24 12:29:01;;;;;;;;;44.00;33.75;;;;;20.75;25.60;102591.19;5109149;27;46346;-75
2022/01/24 12:31:39;;;;;;;;;39.00;30.00;;;;;19.57;27.27;102636.41;5086103;27;45491;-75
2022/01/24 12:34:13;;;;;;;;;43.25;33.50;;;;;18.70;28.53;102638.47;5097702;27;45852;-75
2022/01/24 12:36:39;;;;;;;;;41.25;31.75;;;;;17.74;29.90;102645.44;5115741;27;45450;-76
2022/01/24 12:39:13;;;;;;;;;39.75;31.75;;;;;16.82;31.09;102644.13;5115273;27;46319;-75
2022/01/24 12:41:44;;;;;;;;;36.00;32.25;;;;;15.83;32.26;102622.13;5102020;27;45366;-75
2022/01/24 12:46:18;;;;;;;;;40.25;31.75;;;;;15.29;34.25;102657.56;5102479;27;45352;-76
2022/01/24 12:46:59;;;;;;;;;40.00;32.25;;;;;14.51;34.72;102651.09;5074614;27;45782;-76
2022/01/24 12:49:27;;;;;;;;;34.00;31.25;;;;;13.43;35.85;102556.09;5102622;27;45366;-74
2022/01/24 12:51:53;;;;;;;;;40.50;33.00;;;;;13.48;36.81;102649.22;5115843;27;45745;-72
2022/01/24 12:54:19;;;;;;;;;40.25;31.75;;;;;12.92;37.81;102636.56;5098211;27;45430;-74
2022/01/24 12:56:44;;;;;;;;;38.50;33.00;;;;;11.87;39.09;102562.22;5093098;27;45415;-74
2022/01/24 12:59:10;;;;;;;;;45.25;38.75;;;;;11.86;39.77;102623.41;5093704;27;45415;-77
2022/01/24 13:01:41;;;;;;;;;45.00;37.00;;;;;11.61;40.43;102643.75;5094287;27;45505;-76
2022/01/24 13:04:12;;;;;;;;;45.75;37.50;;;;;11.11;41.56;102631.78;5105532;27;45598;-76
2022/01/24 13:06:44;;;;;;;;;44.50;35.00;;;;;10.94;42.39;102657.47;5106458;27;45270;-76
2022/01/24 13:09:24;;;;;;;;;41.50;33.75;;;;;10.60;42.90;102657.28;5102226;27;46624;-78
2022/01/24 13:12:00;;;;;;;;;42.50;32.75;;;;;10.53;43.72;102655.28;5105254;27;45404;-78
2022/01/24 13:14:42;;;;;;;;;42.75;34.00;;;;;10.29;43.58;102618.72;5103930;27;45623;-79
2022/01/24 13:25:17;;;;;;;;;39.50;33.25;;;;;10.06;44.42;102598.69;5094275;27;45490;-75
2022/01/24 13:27:46;;;;;;;;;43.50;33.00;;;;;10.18;44.62;102635.78;5096395;27;45483;-75
2022/01/24 13:30:22;;;;;;;;;40.00;35.25;;;;;9.76;45.22;102599.41;5093218;27;46311;-76
2022/01/24 13:32:51;;;;;;;;;45.25;34.25;;;;;9.93;45.64;102632.28;5091140;27;45523;-79
2022/01/24 13:35:26;;;;;;;;;43.75;33.25;;;;;9.95;45.76;102628.00;5078162;27;45516;-77
2022/01/24 13:37:58;;;;;;;;;37.50;32.00;;;;;9.95;45.55;102640.22;5086649;27;45602;-79
2022/01/24 13:40:44;;;;;;;;;41.75;33.00;;;;;9.64;45.53;102583.28;5092067;27;46781;-75
2022/01/24 13:43:11;;;;;;;;;52.75;36.25;;;;;9.67;45.79;102602.59;5094003;27;45410;-77
2022/01/24 13:45:42;;;;;;;;;38.75;32.25;;;;;9.66;45.69;102606.06;5096482;27;45470;-76
2022/01/24 13:48:20;;;;;;;;;43.75;34.50;;;;;9.65;46.13;102626.91;5080569;27;45850;-75
2022/01/24 13:50:51;;;;;;;;;37.75;32.00;;;;;9.24;46.99;102572.28;5073375;27;46498;-79
2022/01/24 13:53:39;;;;;;;;;48.50;38.00;;;;;9.41;47.02;102626.91;5079552;27;45582;-77
2022/01/24 13:56:37;;;;;;;;;45.75;34.25;;;;;9.18;47.61;102600.78;5083471;27;45369;-74
2022/01/24 13:59:21;;;;;;;;;37.75;30.00;;;;;8.40;47.11;102470.72;5088165;27;45295;-75
2022/01/24 14:01:58;;;;;;;;;33.75;31.75;;;;;9.18;47.50;102612.97;5097202;27;47287;-73
2022/01/24 14:04:32;;;;;;;;;44.25;34.25;;;;;9.27;47.69;102639.47;5081021;27;45225;-76
2022/01/24 14:07:01;;;;;;;;;38.50;30.25;;;;;9.23;47.81;102634.94;5090383;27;45460;-76
2022/01/24 14:09:34;;;;;;;;;43.50;32.00;;;;;9.20;48.10;102638.34;5097400;27;45577;-74
2022/01/24 14:12:01;;;;;;;;;30.00;25.25;;;;;9.21;48.01;102648.00;5090322;27;46483;-75
2022/01/24 14:14:38;;;;;;;;;40.50;33.00;;;;;8.25;48.42;102485.72;5103315;27;45498;-74
2022/01/24 14:19:38;;;;;;;;;36.50;28.75;;;;;8.88;48.43;102588.34;5095799;27;45968;-73
2022/01/24 14:22:10;;;;;;;;;37.00;33.50;;;;;9.13;48.56;102646.78;5100605;27;47106;-76
2022/01/24 14:24:54;;;;;;;;;30.75;27.50;;;;;9.12;48.34;102645.91;5099140;27;45544;-75
2022/01/24 14:27:47;;;;;;;;;33.50;29.75;;;;;9.11;48.47;102648.44;5095733;27;45358;-73
2022/01/24 14:30:19;;;;;;;;;37.75;28.50;;;;;9.11;48.75;102638.91;5096014;27;45698;-74
2022/01/24 14:33:19;;;;;;;;;36.00;27.75;;;;;8.81;48.47;102604.63;5097362;27;45666;-75
2022/01/24 14:36:02;;;;;;;;;35.50;32.00;;;;;8.92;48.56;102641.59;5106230;27;45360;-74
2022/01/24 14:38:43;;;;;;;;;35.25;26.75;;;;;8.56;48.46;102591.41;5087959;27;45976;-74
2022/01/24 14:41:28;;;;;;;;;30.00;26.25;;;;;8.87;48.89;102657.13;5091631;27;46026;-74
2022/01/24 14:46:40;;;;;;;;;31.00;30.00;;;;;8.86;48.86;102660.56;5089369;27;45446;-75
2022/01/24 14:49:10;;;;;;;;;32.00;28.25;;;;;8.80;48.92;102655.09;5095929;27;45848;-74
2022/01/24 14:51:40;;;;;;;;;31.75;28.75;;;;;8.78;49.32;102651.53;5094305;27;45551;-74
2022/01/24 14:54:11;;;;;;;;;32.25;27.50;;;;;8.76;49.11;102641.88;5099328;27;46890;-75
2022/01/24 14:56:43;;;;;;;;;31.00;26.50;;;;;8.43;49.49;102583.09;5086444;27;45443;-75
2022/01/24 14:59:09;;;;;;;;;33.00;29.75;;;;;8.08;49.61;102540.75;5094574;27;45587;-75
2022/01/24 15:01:36;;;;;;;;;28.25;23.50;;;;;8.56;49.31;102620.16;5098303;27;45299;-73
2022/01/24 15:04:02;;;;;;;;;33.50;29.00;;;;;8.46;49.39;102606.72;5099425;27;45539;-74
2022/01/24 15:06:31;;;;;;;;;32.25;27.00;;;;;8.46;49.19;102608.44;5094121;27;45449;-76
2022/01/24 15:08:59;;;;;;;;;27.25;23.25;;;;;8.68;49.50;102649.38;5092828;27;45493;-74
2022/01/24 15:11:30;;;;;;;;;41.75;31.50;;;;;8.57;49.94;102638.50;5090778;27;45721;-73
2022/01/24 15:14:01;;;;;;;;;30.50;27.25;;;;;8.42;49.78;102628.34;5098890;27;46316;-74
2022/01/24 15:16:37;;;;;;;;;38.00;31.75;;;;;8.64;50.05;102663.16;5094440;27;45502;-74
2022/01/24 15:25:19;;;;;;;;;36.00;31.00;;;;;8.37;50.69;102624.56;5095564;27;45874;-74
2022/01/24 15:27:16;;;;;;;;;37.25;31.50;;;;;8.62;50.65;102664.81;5099207;27;45388;-74
2022/01/24 15:29:42;;;;;;;;;41.50;33.00;;;;;8.46;50.71;102648.50;5097039;27;45790;-75
2022/01/24 15:32:09;;;;;;;;;39.75;31.50;;;;;8.56;51.13;102678.50;5095245;27;45386;-72
2022/01/24 15:34:36;;;;;;;;;34.50;30.75;;;;;8.39;51.20;102656.00;5094492;27;46567;-75
2022/01/24 15:37:04;;;;;;;;;38.00;32.00;;;;;8.56;51.33;102677.59;5095409;27;45456;-71
2022/01/24 15:39:30;;;;;;;;;46.00;33.00;;;;;8.48;51.23;102672.97;5095585;27;45534;-72
2022/01/24 15:42:01;;;;;;;;;34.75;32.00;;;;;8.48;51.79;102682.53;5090391;27;45699;-72
2022/01/24 15:47:05;;;;;;;;;39.75;32.25;;;;;8.38;51.91;102680.31;5094739;27;45431;-72
2022/01/24 15:49:31;;;;;;;;;38.25;32.75;;;;;8.34;51.65;102683.63;5094523;27;45379;-73
2022/01/24 15:51:56;;;;;;;;;36.50;31.50;;;;;8.44;51.84;102698.88;5094971;27;45802;-73
2022/01/24 15:54:24;;;;;;;;;33.50;29.00;;;;;8.25;51.68;102677.16;5093040;27;46716;-73
2022/01/24 15:59:35;;;;;;;;;43.75;33.50;;;;;8.22;52.63;102686.59;5094280;27;45359;-72
2022/01/24 16:02:00;;;;;;;;;40.25;33.25;;;;;8.27;52.09;102701.63;5095234;27;45726;-73
2022/01/24 16:04:26;;;;;;;;;35.25;28.50;;;;;8.27;52.93;102695.53;5096092;27;45722;-72
2022/01/24 16:06:51;;;;;;;;;37.50;30.00;;;;;8.20;52.38;102689.13;5097686;27;45561;-72
2022/01/24 16:09:17;;;;;;;;;35.00;30.75;;;;;8.31;52.25;102696.56;5093630;27;45438;-72
2022/01/24 16:11:43;;;;;;;;;35.75;32.00;;;;;8.12;52.55;102672.28;5094912;27;45274;-73
2022/01/24 16:14:13;;;;;;;;;35.25;30.00;;;;;8.11;52.80;102670.47;5094833;27;45533;-73
2022/01/24 16:16:38;;;;;;;;;37.50;30.75;;;;;8.19;53.25;102687.38;5098665;27;45563;-72
2022/01/24 16:19:05;;;;;;;;;45.50;33.50;;;;;8.19;53.31;102691.72;5095002;27;45425;-73
2022/01/24 16:26:40;;;;;;;;;42.00;34.00;;;;;8.16;53.28;102696.78;5094057;27;46321;-72
2022/01/24 16:29:06;;;;;;;;;43.00;33.25;;;;;7.64;53.42;102618.03;5099076;27;45563;-73
2022/01/24 16:31:32;;;;;;;;;45.00;35.00;;;;;8.06;54.05;102703.31;5098318;27;45474;-72
2022/01/24 16:33:58;;;;;;;;;41.25;34.25;;;;;8.03;53.98;102696.25;5098713;27;45451;-73
2022/01/24 16:36:24;;;;;;;;;44.00;33.75;;;;;7.80;54.50;102676.97;5096121;27;45501;-72
2022/01/24 16:38:49;;;;;;;;;45.75;35.75;;;;;7.81;54.89;102689.19;5095212;27;45512;-72
2022/01/24 16:41:23;;;;;;;;;34.00;30.50;;;;;7.87;54.74;102701.59;5095970;27;45400;-72
2022/01/24 16:49:00;;;;;;;;;49.25;35.75;;;;;7.81;55.70;102694.41;5098109;27;45726;-73
2022/01/24 16:51:26;;;;;;;;;45.50;35.00;;;;;7.82;55.15;102701.41;5096025;27;45623;-73
2022/01/24 16:53:56;;;;;;;;;45.50;34.00;;;;;7.80;55.69;102696.94;5094913;27;45636;-71
2022/01/24 16:56:22;;;;;;;;;44.75;33.00;;;;;7.64;55.13;102671.91;5094767;27;45345;-72
2022/01/24 16:58:48;;;;;;;;;44.00;35.50;;;;;7.58;55.83;102672.50;5096011;27;45412;-73
2022/01/24 17:01:17;;;;;;;;;46.75;37.50;;;;;7.76;55.90;102705.44;5096698;27;45879;-75
2022/01/24 17:03:44;;;;;;;;;49.00;38.00;;;;;7.76;56.20;102721.09;5092133;27;45584;-72
2022/01/24 17:06:10;;;;;;;;;43.50;32.75;;;;;7.62;55.92;102692.69;5097118;27;45364;-71
2022/01/24 17:08:38;;;;;;;;;46.00;36.75;;;;;7.72;56.35;102720.09;5093819;27;45557;-72
2022/01/24 17:11:06;;;;;;;;;48.00;38.25;;;;;7.68;56.83;102715.53;5093780;27;45327;-72
2022/01/24 17:13:32;;;;;;;;;47.25;38.00;;;;;7.46;56.92;102679.78;5084015;27;46217;-72
2022/01/24 17:16:00;;;;;;;;;46.25;36.25;;;;;7.54;56.79;102693.16;5083730;27;45493;-72
2022/01/24 17:18:29;;;;;;;;;47.50;33.75;;;;;7.37;57.24;102671.53;5086131;27;45355;-73
2022/01/24 17:20:55;;;;;;;;;47.25;38.00;;;;;7.13;57.65;102638.28;5094518;27;45654;-73
2022/01/24 17:23:21;;;;;;;;;48.25;37.25;;;;;7.09;57.67;102635.47;5097526;27;45591;-73
2022/01/24 17:25:48;;;;;;;;;40.00;35.75;;;;;7.25;57.80;102664.03;5091855;27;45915;-73
2022/01/24 17:28:15;;;;;;;;;49.00;37.25;;;;;7.52;58.05;102723.47;5095190;27;45385;-76
2022/01/24 17:30:40;;;;;;;;;41.75;35.00;;;;;7.51;58.28;102725.19;5099712;27;45321;-78
2022/01/24 17:33:13;;;;;;;;;45.00;36.50;;;;;7.49;57.64;102713.81;5101363;27;48018;-75
2022/01/24 17:35:39;;;;;;;;;43.75;33.75;;;;;6.67;57.92;102568.44;5100868;27;45561;-79
2022/01/24 17:38:05;;;;;;;;;41.75;34.50;;;;;6.64;57.63;102551.75;5098193;27;45816;-81
2022/01/24 17:40:30;;;;;;;;;44.50;35.00;;;;;7.01;57.58;102625.59;5099040;27;45472;-81
2022/01/24 17:42:56;;;;;;;;;42.50;35.75;;;;;7.43;58.30;102690.97;5097208;27;45383;-76
2022/01/24 17:45:23;;;;;;;;;48.50;36.25;;;;;7.40;58.29;102705.56;5098132;27;45760;-79
2022/01/24 17:47:49;;;;;;;;;43.25;33.00;;;;;7.40;58.57;102705.56;5097948;27;45468;-80
2022/01/24 17:50:22;;;;;;;;;45.50;34.75;;;;;7.46;58.47;102725.81;5092431;27;45504;-81
2022/01/24 17:52:58;;;;;;;;;41.00;33.75;;;;;7.35;58.88;102701.84;5099282;27;45544;-74
2022/01/24 17:55:26;;;;;;;;;44.50;35.50;;;;;7.38;58.81;102728.03;5096916;27;46202;-69
2022/01/24 17:57:54;;;;;;;;;47.25;37.00;;;;;7.16;58.33;102680.13;5100187;27;45693;-74
2022/01/24 18:00:22;;;;;;;;;46.25;36.25;;;;;7.37;58.58;102708.03;5099622;27;46005;-74
2022/01/24 18:02:48;;;;;;;;;46.75;38.00;;;;;7.30;59.34;102708.56;5098830;27;45364;-78
2022/01/24 18:05:15;;;;;;;;;45.25;37.25;;;;;7.30;59.33;102709.44;5102629;27;45235;-71
2022/01/24 18:07:44;;;;;;;;;43.25;33.50;;;;;7.29;59.39;102715.50;5100022;27;45432;-71
2022/01/24 18:10:10;;;;;;;;;40.25;33.50;;;;;7.26;59.40;102710.16;5097922;27;45648;-70
2022/01/24 18:12:36;;;;;;;;;46.50;37.75;;;;;7.32;59.57;102717.34;5098916;27;45767;-70
2022/01/24 18:15:03;;;;;;;;;49.75;37.50;;;;;7.32;59.32;102715.63;5089828;27;45648;-71
2022/01/24 18:17:31;;;;;;;;;42.75;35.75;;;;;7.31;59.33;102715.53;5098149;27;45561;-69
2022/01/24 18:19:56;;;;;;;;;53.25;41.75;;;;;7.18;59.33;102703.66;5100913;27;45483;-69
2022/01/24 18:22:26;;;;;;;;;51.00;39.75;;;;;7.17;59.84;102696.69;5099423;27;45548;-71
2022/01/24 18:24:51;;;;;;;;;52.50;39.75;;;;;7.26;59.20;102727.47;5097168;27;45852;-70
2022/01/24 18:27:18;;;;;;;;;54.50;40.75;;;;;6.79;59.89;102659.28;5097527;27;45719;-76
2022/01/24 18:29:43;;;;;;;;;55.50;41.50;;;;;6.98;60.87;102726.16;5097647;27;45676;-75
2022/01/24 18:32:09;;;;;;;;;49.00;38.00;;;;;6.83;60.95;102723.69;5095111;27;46903;-76
2022/01/24 18:34:35;;;;;;;;;51.75;39.25;;;;;6.73;61.25;102703.22;5094241;27;45516;-78
2022/01/24 18:37:01;;;;;;;;;56.75;42.00;;;;;6.88;60.49;102729.13;5097607;27;45466;-75
2022/01/24 18:39:27;;;;;;;;;53.25;42.75;;;;;6.77;61.37;102721.69;5098459;27;45403;-77
2022/01/24 18:41:53;;;;;;;;;53.25;41.75;;;;;6.83;61.27;102735.81;5088447;27;45441;-78
2022/01/24 18:44:24;;;;;;;;;54.75;41.75;;;;;6.75;61.56;102736.34;5094592;27;45683;-77
2022/01/24 18:46:51;;;;;;;;;56.25;44.00;;;;;6.54;61.71;102722.25;5097225;27;45371;-78
2022/01/24 18:49:17;;;;;;;;;50.00;38.75;;;;;6.50;62.04;102715.09;5100990;27;45271;-78
2022/01/24 18:51:43;;;;;;;;;56.75;41.50;;;;;6.62;62.10;102741.78;5089472;27;46335;-78
2022/01/24 18:54:08;;;;;;;;;51.25;40.00;;;;;6.36;61.87;102699.69;5100070;27;45408;-79
2022/01/24 18:56:35;;;;;;;;;55.50;42.00;;;;;6.46;62.13;102728.78;5100520;27;45529;-80
2022/01/24 18:59:00;;;;;;;;;58.50;45.25;;;;;6.21;62.41;102688.50;5100717;27;45446;-78
2022/01/24 19:01:26;;;;;;;;;55.25;41.00;;;;;6.34;62.35;102724.75;5101119;27;46618;-78
2022/01/24 19:03:52;;;;;;;;;65.00;48.00;;;;;6.27;62.41;102714.84;5087952;27;45496;-76
2022/01/24 19:06:18;;;;;;;;;55.50;44.50;;;;;6.18;61.91;102708.28;5095900;27;45898;-79
2022/01/24 19:08:44;;;;;;;;;56.25;43.50;;;;;6.16;61.91;102714.28;5096265;27;45484;-81
2022/01/24 19:11:10;;;;;;;;;61.50;46.50;;;;;5.66;62.32;102633.59;5095997;27;46315;-79
2022/01/24 19:13:36;;;;;;;;;61.00;48.25;;;;;5.94;62.46;102675.84;5100018;27;45500;-77
2022/01/24 19:16:02;;;;;;;;;64.50;50.25;;;;;6.32;62.86;102747.19;5098583;27;46538;-78
2022/01/24 19:18:33;;;;;;;;;59.25;47.50;;;;;6.25;62.37;102749.41;5096191;27;45540;-79
2022/01/24 19:23:47;;;;;;;;;63.75;46.50;;;;;6.31;62.38;102745.41;5076846;27;45793;-76
2022/01/24 19:26:14;;;;;;;;;59.75;46.00;;;;;6.34;61.79;102748.16;5099438;27;45469;-79
2022/01/24 19:28:45;;;;;;;;;56.75;42.25;;;;;6.34;62.42;102752.50;5097844;27;45477;-77
2022/01/24 19:31:16;;;;;;;;;65.67;51.33;;;;;6.17;61.54;102741.22;5096916;27;45494;-77
2022/01/24 19:33:43;;;;;;;;;62.33;48.33;;;;;6.15;62.30;102755.84;5096883;27;45574;-75
2022/01/24 19:36:10;;;;;;;;;59.25;47.75;;;;;5.85;61.42;102703.06;5111659;27;45561;-78
2022/01/24 19:38:36;;;;;;;;;66.75;49.25;;;;;5.84;61.64;102677.88;5100502;27;45413;-76
2022/01/24 19:41:03;;;;;;;;;58.75;46.25;;;;;5.67;61.48;102636.28;5098542;27;45490;-74
2022/01/24 19:43:29;;;;;;;;;61.67;48.33;;;;;5.92;60.65;102674.84;5101823;27;45537;-76
2022/01/24 19:45:56;;;;;;;;;59.00;46.50;;;;;6.22;61.57;102725.84;5103565;27;45765;-77
2022/01/24 19:48:26;;;;;;;;;63.25;47.25;;;;;6.27;60.86;102732.16;5098664;27;45472;-76
2022/01/24 19:51:00;;;;;;;;;59.75;46.25;;;;;6.51;60.59;102755.94;5098849;27;45842;-76
2022/01/24 19:53:27;;;;;;;;;64.50;47.75;;;;;5.78;60.65;102626.44;5098918;27;45587;-77
2022/01/24 19:56:30;;;;;;;;;60.00;47.25;;;;;5.88;60.98;102661.59;5095722;27;45346;-75
2022/01/24 19:58:58;;;;;;;;;61.00;47.00;;;;;6.53;60.43;102767.34;5089712;27;45359;-76
2022/01/24 20:01:24;;;;;;;;;57.75;47.00;;;;;6.25;60.92;102733.78;5075449;27;46194;-73
2022/01/24 20:03:53;;;;;;;;;66.00;49.00;;;;;6.35;61.00;102772.47;5082617;27;45451;-72
2022/01/24 20:06:19;;;;;;;;;65.75;50.75;;;;;5.73;61.42;102693.78;5076811;27;45430;-78
2022/01/24 20:08:44;;;;;;;;;60.00;46.25;;;;;5.90;60.92;102735.41;5093328;27;45694;-76
2022/01/24 20:11:11;;;;;;;;;62.25;46.00;;;;;5.79;61.36;102719.25;5077366;27;45299;-78
2022/01/24 20:13:39;;;;;;;;;63.50;47.75;;;;;5.70;61.69;102717.03;5079886;27;45467;-74
2022/01/24 20:16:21;;;;;;;;;63.33;49.00;;;;;5.92;61.66;102767.59;5112538;27;45242;-70
2022/01/24 20:18:57;;;;;;;;;67.00;51.00;;;;;5.91;62.45;102784.91;5079851;27;45519;-78
2022/01/24 20:21:23;;;;;;;;;64.33;49.00;;;;;5.68;63.05;102764.56;5077247;27;46334;-78
2022/01/24 20:23:59;;;;;;;;;72.00;52.00;;;;;5.81;62.63;102793.00;5079294;27;45419;-76
2022/01/24 20:26:27;;;;;;;;;63.67;50.00;;;;;5.62;62.73;102770.31;5082347;27;45593;-76
2022/01/24 20:28:54;;;;;;;;;56.00;41.33;;;;;5.64;63.31;102791.19;5086904;27;45578;-76
2022/01/24 20:31:22;;;;;;;;;66.00;52.00;;;;;4.74;63.67;102647.66;5092865;27;46166;-76
2022/01/24 20:33:48;;;;;;;;;64.67;49.67;;;;;5.52;63.01;102801.81;5084334;27;45523;-78
2022/01/24 20:36:13;;;;;;;;;63.33;49.00;;;;;5.42;63.50;102786.53;5076431;27;45283;-75
2022/01/24 20:38:42;;;;;;;;;63.33;51.00;;;;;5.50;63.03;102811.22;5083420;27;45482;-71
2022/01/24 20:41:10;;;;;;;;;73.33;53.33;;;;;5.51;63.26;102806.13;5082853;27;45834;-73
2022/01/24 20:43:36;;;;;;;;;68.33;51.67;;;;;5.47;63.13;102811.94;5082392;27;45550;-76
2022/01/24 20:46:02;;;;;;;;;69.67;52.33;;;;;5.43;63.69;102822.97;5075183;27;45464;-75
2022/01/24 20:48:28;;;;;;;;;64.00;50.00;;;;;5.40;63.52;102814.13;5085539;27;45428;-73
2022/01/24 20:50:58;;;;;;;;;70.00;54.33;;;;;5.38;63.66;102815.72;5084343;27;45907;-76
2022/01/24 20:53:24;;;;;;;;;65.67;50.00;;;;;5.33;63.99;102815.47;5080598;27;45542;-76
2022/01/24 20:55:50;;;;;;;;;69.33;51.33;;;;;5.25;64.45;102798.56;5094934;27;45342;-76
2022/01/24 20:58:18;;;;;;;;;66.00;52.00;;;;;5.19;63.41;102793.00;5093218;27;45486;-77
2022/01/24 21:00:44;;;;;;;;;66.67;52.00;;;;;5.01;64.07;102767.78;5087846;27;45619;-76
2022/01/24 21:03:14;;;;;;;;;62.00;50.33;;;;;5.28;64.07;102817.81;5093023;27;45687;-75
2022/01/24 21:05:40;;;;;;;;;65.00;48.33;;;;;5.25;63.63;102795.97;5100519;27;45580;-77
2022/01/24 21:08:05;;;;;;;;;63.33;51.00;;;;;5.25;64.06;102815.03;5084397;27;45500;-74
2022/01/24 21:10:31;;;;;;;;;71.67;53.67;;;;;4.99;64.16;102784.09;5077384;27;46118;-74
2022/01/24 21:13:08;;;;;;;;;68.33;52.67;;;;;5.10;64.11;102809.88;5075352;27;45530;-75
2022/01/24 21:15:34;;;;;;;;;66.67;51.67;;;;;5.03;64.56;102812.94;5092987;27;45486;-76
2022/01/24 21:18:00;;;;;;;;;67.67;53.00;;;;;5.04;64.61;102819.91;5087824;27;45476;-73
2022/01/24 21:20:25;;;;;;;;;67.33;52.33;;;;;5.04;64.31;102822.50;5084987;27;46128;-76
2022/01/24 21:22:51;;;;;;;;;70.33;53.00;;;;;4.61;64.28;102746.41;5091328;27;45403;-75
2022/01/24 21:25:17;;;;;;;;;67.33;51.00;;;;;4.96;64.29;102805.59;5094752;27;45395;-76
2022/01/24 21:27:43;;;;;;;;;72.00;50.00;;;;;4.86;64.57;102787.66;5095043;27;45710;-79